createdAt,value
2023-02-12T00:01:38.573Z,25.87
2023-02-12T00:04:05.156Z,24.60
2023-02-12T00:06:31.971Z,23.97
2023-02-12T00:08:59.346Z,28.67
2023-02-12T00:11:28.236Z,22.73
2023-02-12T00:21:33.504Z,27.73
2023-02-12T00:24:00.135Z,27.07
2023-02-12T00:26:26.763Z,26.47
2023-02-12T00:31:33.246Z,23.87
2023-02-12T00:34:00.552Z,23.37
2023-02-12T00:36:29.589Z,25.50
2023-02-12T00:38:57.236Z,23.07
2023-02-12T00:41:24.357Z,25.87
2023-02-12T00:43:51.580Z,23.07
2023-02-12T00:46:18.887Z,22.13
2023-02-12T00:48:45.593Z,23.17
2023-02-12T00:51:12.273Z,24.37
2023-02-12T00:53:38.964Z,26.37
2023-02-12T00:56:06.084Z,28.50
2023-02-12T00:58:32.902Z,23.17
2023-02-12T01:03:32.900Z,22.13
2023-02-12T01:05:59.448Z,25.87
2023-02-12T01:08:26.242Z,24.27
2023-02-12T01:10:58.339Z,24.57
2023-02-12T01:13:26.077Z,24.23
2023-02-12T01:18:44.865Z,21.37
2023-02-12T01:21:15.170Z,23.97
2023-02-12T01:23:42.949Z,24.73
2023-02-12T01:26:11.749Z,21.03
2023-02-12T01:28:42.833Z,23.43
2023-02-12T01:31:15.066Z,21.97
2023-02-12T01:33:43.528Z,25.37
2023-02-12T01:36:11.371Z,26.57
2023-02-12T01:38:37.924Z,25.20
2023-02-12T01:41:11.610Z,22.47
2023-02-12T01:43:38.807Z,27.37
2023-02-12T01:46:06.749Z,22.27
2023-02-12T01:48:39.097Z,25.27
2023-02-12T01:51:09.572Z,24.33
2023-02-12T01:53:41.227Z,24.20
2023-02-12T01:56:09.688Z,21.53
2023-02-12T01:58:40.025Z,20.23
2023-02-12T02:01:09.870Z,23.27
2023-02-12T02:06:20.032Z,21.23
2023-02-12T02:08:47.075Z,23.13
2023-02-12T02:11:32.059Z,25.50
2023-02-12T02:14:17.299Z,21.97
2023-02-12T02:16:51.967Z,23.50
2023-02-12T02:20:09.579Z,23.10
2023-02-12T02:22:50.123Z,21.60
2023-02-12T02:25:42.369Z,26.77
2023-02-12T02:28:32.904Z,22.80
2023-02-12T02:31:02.249Z,23.53
2023-02-12T02:33:51.431Z,23.53
2023-02-12T02:37:00.210Z,23.97
2023-02-12T02:39:41.085Z,25.00
2023-02-12T02:42:37.191Z,22.50
2023-02-12T02:45:13.582Z,25.13
2023-02-12T02:47:45.843Z,21.63
2023-02-12T02:50:16.875Z,20.87
2023-02-12T02:55:36.060Z,22.60
2023-02-12T02:58:25.450Z,21.50
2023-02-12T03:03:38.385Z,23.53
2023-02-12T03:06:13.696Z,20.90
2023-02-12T03:08:47.066Z,21.47
2023-02-12T03:11:25.482Z,22.37
2023-02-12T03:14:13.724Z,23.00
2023-02-12T03:16:47.528Z,21.97
2023-02-12T03:19:31.545Z,22.63
2023-02-12T03:22:03.297Z,21.57
2023-02-12T03:24:46.614Z,22.57
2023-02-12T03:27:26.561Z,22.93
2023-02-12T03:29:53.254Z,20.63
2023-02-12T03:32:36.294Z,20.17
2023-02-12T03:38:16.607Z,22.37
2023-02-12T03:41:06.846Z,20.17
2023-02-12T03:43:56.078Z,21.63
2023-02-12T03:46:27.725Z,19.67
2023-02-12T03:49:16.401Z,22.10
2023-02-12T03:51:45.098Z,20.70
2023-02-12T03:54:15.884Z,19.47
2023-02-12T03:56:52.233Z,23.57
2023-02-12T03:59:20.216Z,21.17
2023-02-12T04:01:49.075Z,21.27
2023-02-12T04:04:16.506Z,19.00
2023-02-12T04:06:43.802Z,21.33
2023-02-12T04:09:12.854Z,21.30
2023-02-12T04:11:54.172Z,27.90
2023-02-12T04:14:25.156Z,22.00
2023-02-12T04:17:03.539Z,21.27
2023-02-12T04:20:04.375Z,23.67
2023-02-12T04:22:54.017Z,22.37
2023-02-12T04:25:42.433Z,23.80
2023-02-12T04:28:27.611Z,23.67
2023-02-12T04:31:06.491Z,23.50
2023-02-12T04:33:41.469Z,24.33
2023-02-12T04:36:20.997Z,22.13
2023-02-12T04:38:54.062Z,24.67
2023-02-12T04:41:20.879Z,23.90
2023-02-12T04:43:47.449Z,22.83
2023-02-12T04:46:14.132Z,21.73
2023-02-12T04:48:58.833Z,26.30
2023-02-12T04:51:25.580Z,21.73
2023-02-12T04:53:52.173Z,22.63
2023-02-12T04:56:18.792Z,25.00
2023-02-12T04:58:45.507Z,23.40
2023-02-12T05:03:49.645Z,23.53
2023-02-12T05:06:16.250Z,22.20
2023-02-12T05:08:42.836Z,21.17
2023-02-12T05:11:11.631Z,22.13
2023-02-12T05:13:38.844Z,21.93
2023-02-12T05:16:07.318Z,22.30
2023-02-12T05:18:34.865Z,23.83
2023-02-12T05:23:36.915Z,23.13
2023-02-12T05:26:06.715Z,24.90
2023-02-12T05:28:33.440Z,24.23
2023-02-12T05:31:02.102Z,23.10
2023-02-12T05:33:28.803Z,22.17
2023-02-12T05:35:55.971Z,25.77
2023-02-12T05:38:22.965Z,20.20
2023-02-12T05:40:49.526Z,23.97
2023-02-12T05:43:16.113Z,24.23
2023-02-12T05:45:45.130Z,23.00
2023-02-12T05:48:11.742Z,22.77
2023-02-12T05:50:38.366Z,26.60
2023-02-12T05:53:04.946Z,22.70
2023-02-12T05:55:31.581Z,24.80
2023-02-12T05:57:58.202Z,24.07
2023-02-12T06:00:25.079Z,22.60
2023-02-12T06:02:51.751Z,25.73
2023-02-12T06:05:18.468Z,25.93
2023-02-12T06:10:17.560Z,25.23
2023-02-12T06:12:44.127Z,22.57
2023-02-12T06:15:10.901Z,22.50
2023-02-12T06:17:37.544Z,23.50
2023-02-12T06:20:04.615Z,22.30
2023-02-12T06:22:31.242Z,26.37
2023-02-12T06:24:57.807Z,22.77
2023-02-12T06:27:24.356Z,23.50
2023-02-12T06:29:50.932Z,25.30
2023-02-12T06:32:17.816Z,25.13
2023-02-12T06:34:44.536Z,24.60
2023-02-12T06:37:12.096Z,23.13
2023-02-12T06:39:38.766Z,23.37
2023-02-12T06:42:05.463Z,25.60
2023-02-12T06:44:32.077Z,24.27
2023-02-12T06:46:59.297Z,25.93
2023-02-12T06:51:57.652Z,26.47
2023-02-12T06:54:24.385Z,22.57
2023-02-12T06:56:51.014Z,26.23
2023-02-12T06:59:17.872Z,25.47
2023-02-12T07:01:44.919Z,26.73
2023-02-12T07:04:11.755Z,25.77
2023-02-12T07:06:38.697Z,27.77
2023-02-12T07:09:05.874Z,27.13
2023-02-12T07:11:37.785Z,25.57
2023-02-12T07:14:05.271Z,30.03
2023-02-12T07:19:03.320Z,29.67
2023-02-12T07:21:30.000Z,30.13
2023-02-12T07:23:56.650Z,29.10
2023-02-12T07:26:23.533Z,29.60
2023-02-12T07:28:52.293Z,28.43
2023-02-12T07:31:22.035Z,27.97
2023-02-12T07:33:49.494Z,28.77
2023-02-12T07:36:20.585Z,25.37
2023-02-12T07:38:48.210Z,25.97
2023-02-12T07:41:20.677Z,24.23
2023-02-12T07:43:49.474Z,24.90
2023-02-12T07:46:19.143Z,27.47
2023-02-12T07:48:47.049Z,24.50
2023-02-12T07:51:16.197Z,26.30
2023-02-12T07:53:43.216Z,29.60
2023-02-12T07:56:12.311Z,27.53
2023-02-12T07:58:40.432Z,26.53
2023-02-12T08:01:15.825Z,26.93
2023-02-12T08:03:43.284Z,26.77
2023-02-12T08:06:16.751Z,24.80
2023-02-12T08:11:15.939Z,28.80
2023-02-12T08:13:43.201Z,25.13
2023-02-12T08:16:13.531Z,26.60
2023-02-12T08:18:40.916Z,25.83
2023-02-12T08:21:21.462Z,26.67
2023-02-12T08:26:42.949Z,26.37
2023-02-12T08:29:13.260Z,26.20
2023-02-12T08:31:46.183Z,30.40
2023-02-12T08:34:20.235Z,29.93
2023-02-12T08:36:48.493Z,28.17
2023-02-12T08:39:15.404Z,31.00
2023-02-12T08:41:45.159Z,27.53
2023-02-12T08:44:13.331Z,27.93
2023-02-12T08:49:20.930Z,30.30
2023-02-12T08:51:50.053Z,26.97
2023-02-12T08:54:20.712Z,20.03
2023-02-12T08:56:47.451Z,29.03
2023-02-12T08:59:16.166Z,29.70
2023-02-12T09:01:44.191Z,27.57
2023-02-12T09:04:21.608Z,30.17
2023-02-12T09:06:49.831Z,30.60
2023-02-12T09:09:16.836Z,26.23
2023-02-12T09:11:44.879Z,32.23
2023-02-12T09:14:16.794Z,31.17
2023-02-12T09:16:44.146Z,31.03
2023-02-12T09:19:13.596Z,27.37
2023-02-12T09:21:40.335Z,28.43
2023-02-12T09:24:07.176Z,27.93
2023-02-12T09:26:33.852Z,25.97
2023-02-12T09:29:02.552Z,27.37
2023-02-12T09:31:31.313Z,27.30
2023-02-12T09:34:01.170Z,28.70
2023-02-12T09:36:28.581Z,22.00
2023-02-12T09:41:46.731Z,28.23
2023-02-12T09:44:45.408Z,26.57
2023-02-12T09:47:40.143Z,25.27
2023-02-12T09:50:30.600Z,26.00
2023-02-12T09:52:59.343Z,27.70
2023-02-12T09:55:30.342Z,29.27
2023-02-12T09:57:57.154Z,27.13
2023-02-12T10:00:31.229Z,27.70
2023-02-12T10:03:05.003Z,23.23
2023-02-12T10:05:35.723Z,18.93
2023-02-12T10:08:52.793Z,20.93
2023-02-12T10:11:35.294Z,24.53
2023-02-12T10:14:21.844Z,22.97
2023-02-12T10:17:00.463Z,17.27
2023-02-12T10:19:45.479Z,17.90
2023-02-12T10:22:28.445Z,15.93
2023-02-12T10:25:18.541Z,14.23
2023-02-12T10:27:50.506Z,12.37
2023-02-12T10:30:22.135Z,9.00
2023-02-12T10:32:53.003Z,11.37
2023-02-12T10:35:21.947Z,8.80
2023-02-12T10:37:54.248Z,7.97
2023-02-12T10:40:27.747Z,9.53
2023-02-12T10:42:54.689Z,7.60
2023-02-12T10:45:29.328Z,8.77
2023-02-12T10:48:06.015Z,9.87
2023-02-12T10:50:51.288Z,6.63
2023-02-12T10:53:24.216Z,7.60
2023-02-12T10:56:10.742Z,8.80
2023-02-12T10:58:40.052Z,9.83
2023-02-12T11:01:17.922Z,7.07
2023-02-12T11:03:44.485Z,8.80
2023-02-12T11:06:20.126Z,6.57
2023-02-12T11:08:46.902Z,5.80
2023-02-12T11:11:20.912Z,4.97
2023-02-12T11:13:56.532Z,4.53
2023-02-12T11:16:40.592Z,4.90
2023-02-12T11:19:18.284Z,5.33
2023-02-12T11:21:44.990Z,5.53
2023-02-12T11:24:26.701Z,4.70
2023-02-12T11:27:19.615Z,5.87
2023-02-12T11:29:49.767Z,5.40
2023-02-12T11:32:18.672Z,6.20
2023-02-12T11:35:08.812Z,5.70
2023-02-12T11:37:41.414Z,5.90
2023-02-12T11:40:16.764Z,6.93
2023-02-12T11:42:49.472Z,8.70
2023-02-12T11:45:19.961Z,6.63
2023-02-12T11:47:47.864Z,6.20
2023-02-12T11:50:24.688Z,5.90
2023-02-12T11:52:53.970Z,5.33
2023-02-12T11:55:34.999Z,5.33
2023-02-12T11:58:13.576Z,7.10
2023-02-12T12:00:49.161Z,6.07
2023-02-12T12:03:23.095Z,4.90
2023-02-12T12:05:52.752Z,5.50
2023-02-12T12:08:29.676Z,4.90
2023-02-12T12:11:19.363Z,4.50
2023-02-12T12:14:04.194Z,5.53
2023-02-12T12:17:15.742Z,5.47
2023-02-12T12:23:03.513Z,4.80
2023-02-12T12:25:52.648Z,5.80
2023-02-12T12:28:39.538Z,4.50
2023-02-12T12:31:21.232Z,4.73
2023-02-12T12:34:11.766Z,4.93
2023-02-12T12:39:18.811Z,4.20
2023-02-12T12:41:52.317Z,3.97
2023-02-12T12:44:38.480Z,4.13
2023-02-12T12:47:27.845Z,3.50
2023-02-12T12:50:33.377Z,3.97
2023-02-12T12:53:19.073Z,4.20
2023-02-12T12:56:08.237Z,3.57
2023-02-12T13:01:58.360Z,6.27
2023-02-12T13:04:32.848Z,4.53
2023-02-12T13:07:02.127Z,4.30
2023-02-12T13:09:57.328Z,4.77
2023-02-12T13:12:36.167Z,6.30
2023-02-12T13:15:37.665Z,5.67
2023-02-12T13:18:09.968Z,4.97
2023-02-12T13:20:48.940Z,5.60
2023-02-12T13:23:24.472Z,4.83
2023-02-12T13:26:04.224Z,4.27
2023-02-12T13:28:52.865Z,4.67
2023-02-12T13:31:34.561Z,4.87
2023-02-12T13:34:07.178Z,5.13
2023-02-12T13:36:36.776Z,4.67
2023-02-12T13:39:32.241Z,4.17
2023-02-12T13:42:08.820Z,4.47
2023-02-12T13:45:01.948Z,4.07
2023-02-12T13:47:45.542Z,3.70
2023-02-12T13:50:30.779Z,3.27
2023-02-12T13:53:07.823Z,3.57
2023-02-12T13:55:46.731Z,3.13
2023-02-12T13:58:32.057Z,3.00
2023-02-12T14:01:03.987Z,2.57
2023-02-12T14:03:31.930Z,2.27
2023-02-12T14:06:18.636Z,2.03
2023-02-12T14:08:51.023Z,2.00
2023-02-12T14:11:24.660Z,2.40
2023-02-12T14:13:55.472Z,2.60
2023-02-12T14:16:31.035Z,2.50
2023-02-12T14:19:35.297Z,2.53
2023-02-12T14:22:09.845Z,2.40
2023-02-12T14:24:36.362Z,2.10
2023-02-12T14:27:17.618Z,2.17
2023-02-12T14:30:07.929Z,1.93
2023-02-12T14:32:57.905Z,2.33
2023-02-12T14:35:30.070Z,1.80
2023-02-12T14:38:16.591Z,2.07
2023-02-12T14:40:45.522Z,1.90
2023-02-12T14:43:32.074Z,1.80
2023-02-12T14:46:23.511Z,2.00
2023-02-12T14:49:06.026Z,2.37
2023-02-12T14:51:45.006Z,2.20
2023-02-12T14:54:42.452Z,2.03
2023-02-12T14:57:20.162Z,2.20
2023-02-12T14:59:49.222Z,1.97
2023-02-12T15:02:25.968Z,2.60
2023-02-12T15:04:55.266Z,2.83
2023-02-12T15:07:43.603Z,1.80
2023-02-12T15:10:17.612Z,1.83
2023-02-12T15:13:10.508Z,2.00
2023-02-12T15:15:49.403Z,4.17
2023-02-12T15:18:24.602Z,2.23
2023-02-12T15:20:59.720Z,2.40
2023-02-12T15:23:39.581Z,1.87
2023-02-12T15:26:12.377Z,2.27
2023-02-12T15:28:40.136Z,2.07
2023-02-12T15:31:11.508Z,2.10
2023-02-12T15:33:45.764Z,3.83
2023-02-12T15:36:18.307Z,2.10
2023-02-12T15:38:49.610Z,2.43
2023-02-12T15:41:34.178Z,2.23
2023-02-12T15:44:04.152Z,2.10
2023-02-12T15:51:49.787Z,3.50
2023-02-12T15:54:20.277Z,2.70
2023-02-12T15:56:47.194Z,2.30
2023-02-12T15:59:25.172Z,2.57
2023-02-12T16:02:02.405Z,3.10
2023-02-12T16:04:34.311Z,2.63
2023-02-12T16:07:01.904Z,2.43
2023-02-12T16:09:34.054Z,2.33
2023-02-12T16:12:03.732Z,3.17
2023-02-12T16:14:44.899Z,2.60
2023-02-12T16:17:29.432Z,2.57
2023-02-12T16:20:06.756Z,2.27
2023-02-12T16:22:41.160Z,2.43
2023-02-12T16:25:33.231Z,3.20
2023-02-12T16:28:18.964Z,3.07
2023-02-12T16:30:48.545Z,3.13
2023-02-12T16:36:30.596Z,4.70
2023-02-12T16:39:05.306Z,4.03
2023-02-12T16:41:34.154Z,3.77
2023-02-12T16:44:00.746Z,3.77
2023-02-12T16:46:33.287Z,3.93
2023-02-12T16:49:01.448Z,4.03
2023-02-12T16:51:28.195Z,3.30
2023-02-12T16:53:57.847Z,3.70
2023-02-12T16:56:29.952Z,3.60
2023-02-12T16:58:58.957Z,6.67
2023-02-12T17:01:34.200Z,6.47
2023-02-12T17:04:04.494Z,5.67
2023-02-12T17:06:32.235Z,3.60
2023-02-12T17:08:59.766Z,3.73
2023-02-12T17:11:28.162Z,3.67
2023-02-12T17:13:55.765Z,3.60
2023-02-12T17:16:31.882Z,3.97
2023-02-12T17:19:00.186Z,4.83
2023-02-12T17:24:21.168Z,5.20
2023-02-12T17:26:50.549Z,8.27
2023-02-12T17:29:18.255Z,4.90
2023-02-12T17:31:45.470Z,5.10
2023-02-12T17:34:12.204Z,5.77
2023-02-12T17:36:38.830Z,5.87
2023-02-12T17:39:07.219Z,10.53
2023-02-12T17:41:34.173Z,5.87
2023-02-12T17:44:01.120Z,5.43
2023-02-12T17:49:06.633Z,7.20
2023-02-12T17:51:33.242Z,6.43
2023-02-12T17:53:59.837Z,8.53
2023-02-12T17:56:26.385Z,6.83
2023-02-12T17:58:53.138Z,7.50
2023-02-12T18:01:22.615Z,6.33
2023-02-12T18:03:52.341Z,5.97
2023-02-12T18:06:28.417Z,6.53
2023-02-12T18:08:57.096Z,8.23
2023-02-12T18:11:24.227Z,6.80
2023-02-12T18:13:58.683Z,11.53
2023-02-12T18:16:27.668Z,7.07
2023-02-12T18:18:54.901Z,9.07
2023-02-12T18:21:21.720Z,8.63
2023-02-12T18:23:48.402Z,7.83
2023-02-12T18:26:17.352Z,8.07
2023-02-12T18:28:44.538Z,6.97
2023-02-12T18:31:12.226Z,6.80
2023-02-12T18:33:39.215Z,10.57
2023-02-12T18:36:09.641Z,7.67
2023-02-12T18:38:38.392Z,8.70
2023-02-12T18:41:23.805Z,8.17
2023-02-12T18:43:50.518Z,6.93
2023-02-12T18:46:24.520Z,8.17
2023-02-12T18:48:52.020Z,7.23
2023-02-12T18:51:22.683Z,8.23
2023-02-12T18:53:57.221Z,8.37
2023-02-12T18:56:23.960Z,8.57
2023-02-12T18:58:55.246Z,8.33
2023-02-12T19:04:02.525Z,7.23
2023-02-12T19:06:30.808Z,8.13
2023-02-12T19:08:59.635Z,7.67
2023-02-12T19:11:27.926Z,15.97
2023-02-12T19:13:55.165Z,8.90
2023-02-12T19:16:23.885Z,8.20
2023-02-12T19:18:52.015Z,10.80
2023-02-12T19:21:19.055Z,11.70
2023-02-12T19:23:45.748Z,11.43
2023-02-12T19:26:15.611Z,10.43
2023-02-12T19:28:43.294Z,9.30
2023-02-12T19:31:37.728Z,8.47
2023-02-12T19:34:07.218Z,10.33
2023-02-12T19:36:36.044Z,12.17
2023-02-12T19:39:04.811Z,11.63
2023-02-12T19:41:33.056Z,9.57
2023-02-12T19:44:01.515Z,8.17
2023-02-12T19:49:02.842Z,7.33
2023-02-12T19:51:30.609Z,7.57
2023-02-12T19:54:02.394Z,8.77
2023-02-12T19:56:29.439Z,9.10
2023-02-12T19:58:57.512Z,8.97
2023-02-12T20:03:58.955Z,7.93
2023-02-12T20:06:29.848Z,8.93
2023-02-12T20:08:56.978Z,11.20
2023-02-12T20:11:25.813Z,12.23
2023-02-12T20:13:52.937Z,12.33
2023-02-12T20:16:22.575Z,11.30
2023-02-12T20:18:51.377Z,13.77
2023-02-12T20:21:20.930Z,10.70
2023-02-12T20:23:47.628Z,10.53
2023-02-12T20:26:14.971Z,14.10
2023-02-12T20:33:57.036Z,10.80
2023-02-12T20:36:24.402Z,12.13
2023-02-12T20:38:58.447Z,11.43
2023-02-12T20:41:26.959Z,11.07
2023-02-12T20:43:53.902Z,11.83
2023-02-12T20:46:23.362Z,10.13
2023-02-12T20:48:50.130Z,11.37
2023-02-12T20:51:19.529Z,9.20
2023-02-12T20:53:46.886Z,10.20
2023-02-12T20:56:25.284Z,17.03
2023-02-12T20:58:52.619Z,13.50
2023-02-12T21:01:25.693Z,12.37
2023-02-12T21:03:55.165Z,11.37
2023-02-12T21:06:23.561Z,10.70
2023-02-12T21:08:51.460Z,9.93
2023-02-12T21:11:22.005Z,11.30
2023-02-12T21:13:58.891Z,11.17
2023-02-12T21:16:33.470Z,12.63
2023-02-12T21:19:00.462Z,10.07
2023-02-12T21:21:29.623Z,12.40
2023-02-12T21:23:58.337Z,10.47
2023-02-12T21:26:27.239Z,11.97
2023-02-12T21:28:56.114Z,12.30
2023-02-12T21:31:29.163Z,11.23
2023-02-12T21:33:57.704Z,12.20
2023-02-12T21:36:26.689Z,10.93
2023-02-12T21:38:53.345Z,12.23
2023-02-12T21:41:23.559Z,11.17
2023-02-12T21:43:52.657Z,13.97
2023-02-12T21:46:21.753Z,12.67
2023-02-12T21:51:27.169Z,13.73
2023-02-12T21:54:06.211Z,11.20
2023-02-12T21:56:32.937Z,11.90
2023-02-12T21:58:59.717Z,12.33
2023-02-12T22:01:33.206Z,12.20
2023-02-12T22:04:01.497Z,14.47
2023-02-12T22:06:28.090Z,10.70
2023-02-12T22:08:56.790Z,12.63
2023-02-12T22:11:23.501Z,12.90
2023-02-12T22:13:50.117Z,15.47
2023-02-12T22:16:18.153Z,14.03
2023-02-12T22:18:46.259Z,12.00
2023-02-12T22:21:15.306Z,14.73
2023-02-12T22:23:43.274Z,11.73
2023-02-12T22:26:14.212Z,13.50
2023-02-12T22:28:43.282Z,11.60
2023-02-12T22:31:12.381Z,11.37
2023-02-12T22:33:39.167Z,12.23
2023-02-12T22:36:08.260Z,13.67
2023-02-12T22:38:36.181Z,12.77
2023-02-12T22:41:03.292Z,12.97
2023-02-12T22:46:02.210Z,13.30
2023-02-12T22:48:29.682Z,15.53
2023-02-12T22:50:57.651Z,13.47
2023-02-12T22:53:25.336Z,12.70
2023-02-12T22:58:29.982Z,13.60
2023-02-12T23:00:56.989Z,11.30
2023-02-12T23:03:23.810Z,12.27
2023-02-12T23:05:50.348Z,10.80
2023-02-12T23:08:16.913Z,14.67
2023-02-12T23:10:43.951Z,13.57
2023-02-12T23:13:13.543Z,13.23
2023-02-12T23:15:45.111Z,13.40
2023-02-12T23:18:11.651Z,12.17
2023-02-12T23:20:39.909Z,10.77
2023-02-12T23:23:06.478Z,11.10
2023-02-12T23:25:33.003Z,11.90
2023-02-12T23:27:59.696Z,11.83
2023-02-12T23:30:26.444Z,14.80
2023-02-12T23:32:53.079Z,12.43
2023-02-12T23:35:19.727Z,14.40
2023-02-12T23:37:46.271Z,15.03
2023-02-12T23:40:13.555Z,12.73
2023-02-12T23:42:40.971Z,13.50
2023-02-12T23:45:09.176Z,14.07
2023-02-12T23:47:35.845Z,13.20
2023-02-12T23:50:02.368Z,12.43
2023-02-12T23:52:28.900Z,15.83
2023-02-12T23:54:56.868Z,12.03
2023-02-12T23:57:23.482Z,13.87
2023-02-12T23:59:50.165Z,12.73
